SBCG

Details ICAO SBCG (CGR)
Name Campo Grande
Region Brazil
Timezone America/Campo_Grande (UTC-3.0)
Plans Departing 70
Arriving 74
Stats Elevation 1,833 ft / 559 m (AMSL)
Location -20.468666° -54.672500°
Runways 1
Magnetic Variation 17.529° W
Sunrise 2017-12-11 08:53:02 UTC / 2017-12-11 05:53:02 Local
Sunset 2017-12-11 22:13:54 UTC / 2017-12-11 19:13:54 Local
Advertisement - Login to hide

Runways

ID Width Length Bearing (true) Bearing (mag) Surface Threshold Offset Overrun Length
06 141 ft / 43 m 8,563 ft / 2,610 m 40.84° 58.37° Asphalt 0 ft / 0 m 192 ft / 59 m
24 141 ft / 43 m 8,563 ft / 2,610 m 220.83° 238.36° Asphalt 0 ft / 0 m 190 ft / 58 m

Approach Navaids

Runway Type Ident Frequency Range Bearing (true) Bearing (mag) Slope Elevation
06 Localiser ICG 110.30 MHz 18 nm / 33 km 41.62° 59.15° - 1,833 ft / 559 m (AMSL)
06 Glidescope ICG 110.30 MHz 10 nm / 19 km 40.84° 58.37° 3.00° 1,833 ft / 559 m (AMSL)

Map

Weather


0- 5 10 15 20 25 30 35+ Temperature / ° C

Clouds and Precipitation
Forecast for 2017-12-11 18:00 UTC. Updated 17 minutes ago

Ground ~20,000 ft ~40,000 ft Winds

METAR

SBCG 111300Z 16013KT CAVOK 28/18 Q1011

TAF

TAF SBCG 110830Z 1112/1212 16008KT CAVOK TX31/1118Z TN21/1208Z BECMG 1122/1124 12008KT RMK PDW

Frequencies

Ground 121.90 MHz GND
Approach 120.20 MHz APP
Tower 118.10 MHz TWR
Warning: Do not use this data for real-world aviation or navigation. No guarantee of current accuracy is given.